Time;durP1;ratioP1;P1;durP2;ratioP2;P2;SDS_P1;SDS_P2;PMS_P1;PMS_P2;Temp;Humidity;BMP_temperature;BMP_pressure;BME280_temperature;BME280_humidity;BME280_pressure;Samples;Min_cycle;Max_cycle;Signal;HPM_P1;HPM_P2
2022/09/02 00:00:48;;;;;;;1.55;0.85;;;29.60;99.90;;;;;;4975608;28;20086;-49
2022/09/02 00:03:15;;;;;;;2.78;0.70;;;29.60;99.90;;;;;;4975152;28;20038;-49
2022/09/02 00:05:41;;;;;;;6.93;1.10;;;29.60;99.90;;;;;;4975100;28;20460;-49
2022/09/02 00:08:08;;;;;;;5.45;1.42;;;29.60;99.90;;;;;;4975048;28;20375;-49
2022/09/02 00:10:37;;;;;;;5.90;1.17;;;29.60;99.90;;;;;;4975281;28;20104;-50
2022/09/02 00:13:04;;;;;;;1.80;0.52;;;29.60;99.90;;;;;;4975162;28;20054;-49
2022/09/02 00:15:30;;;;;;;1.52;0.63;;;29.60;99.90;;;;;;4975204;28;20058;-49
2022/09/02 00:17:56;;;;;;;2.67;1.00;;;29.70;99.90;;;;;;4974961;28;20054;-50
2022/09/02 00:20:22;;;;;;;2.17;0.98;;;29.70;99.90;;;;;;4974792;28;20039;-49
2022/09/02 00:22:48;;;;;;;5.00;0.65;;;29.70;99.90;;;;;;4974721;28;20186;-50
2022/09/02 00:25:14;;;;;;;2.67;1.10;;;29.70;99.90;;;;;;4974539;28;20109;-49
2022/09/02 00:27:40;;;;;;;3.15;0.90;;;29.70;99.90;;;;;;4974543;28;20031;-50
2022/09/02 00:30:06;;;;;;;2.95;0.90;;;29.70;99.90;;;;;;4974476;28;20030;-50
2022/09/02 00:32:32;;;;;;;2.10;0.95;;;29.70;99.90;;;;;;4974492;28;20026;-49
2022/09/02 00:34:58;;;;;;;4.60;0.88;;;29.70;99.90;;;;;;4974405;28;20394;-50
2022/09/02 00:37:26;;;;;;;5.43;1.37;;;29.70;99.90;;;;;;4972943;28;20030;-50
2022/09/02 00:39:53;;;;;;;3.58;0.93;;;29.70;99.90;;;;;;4974332;28;20037;-49
2022/09/02 00:42:20;;;;;;;2.28;0.90;;;29.70;99.90;;;;;;4974550;28;20034;-49
2022/09/02 00:44:46;;;;;;;6.45;0.88;;;29.70;99.90;;;;;;4974165;28;20039;-49
2022/09/02 00:47:14;;;;;;;5.07;1.20;;;29.70;99.90;;;;;;4974518;28;20391;-50
2022/09/02 00:49:42;;;;;;;;;;;29.70;99.90;;;;;;4974863;28;20041;-49
2022/09/02 00:52:23;;;;;;;5.05;1.17;;;29.70;99.90;;;;;;4974304;28;20347;-49
2022/09/02 00:54:53;;;;;;;2.65;0.68;;;29.70;99.90;;;;;;4974387;28;20031;-50
2022/09/02 00:57:22;;;;;;;1.70;1.38;;;29.70;99.90;;;;;;4974436;28;20492;-49
2022/09/02 00:59:48;;;;;;;4.20;0.85;;;29.70;99.90;;;;;;4974763;28;20055;-49
2022/09/02 01:02:14;;;;;;;2.40;0.98;;;29.70;99.90;;;;;;4973818;28;20025;-49
2022/09/02 01:04:41;;;;;;;4.57;1.10;;;29.70;99.90;;;;;;4972837;28;20387;-49
2022/09/02 01:07:08;;;;;;;;;;;29.60;99.90;;;;;;4974393;28;20034;-49
2022/09/02 01:09:35;;;;;;;6.20;0.90;;;29.70;99.90;;;;;;4974067;28;19906;-50
2022/09/02 01:12:02;;;;;;;4.63;0.83;;;29.60;99.90;;;;;;4974050;28;20595;-49
2022/09/02 01:14:28;;;;;;;2.33;0.90;;;29.60;99.90;;;;;;4973850;28;20279;-49
2022/09/02 01:16:58;;;;;;;3.07;0.90;;;29.60;99.90;;;;;;4973824;28;20097;-49
2022/09/02 01:19:33;;;;;;;2.80;1.00;;;29.60;99.90;;;;;;4973825;28;20089;-49
2022/09/02 01:21:59;;;;;;;3.45;0.82;;;29.60;99.90;;;;;;4973744;28;20026;-49
2022/09/02 01:24:30;;;;;;;3.35;0.88;;;29.50;99.90;;;;;;4972366;28;20474;-49
2022/09/02 01:26:57;;;;;;;1.13;0.52;;;29.50;99.90;;;;;;4972303;28;20517;-49
2022/09/02 01:29:25;;;;;;;6.07;0.80;;;29.50;99.90;;;;;;4973713;28;20114;-49
2022/09/02 01:31:50;;;;;;;;;;;29.50;99.90;;;;;;4972965;28;20499;-49
2022/09/02 01:34:16;;;;;;;10.82;1.38;;;29.50;99.90;;;;;;4973395;28;19906;-49
2022/09/02 01:36:42;;;;;;;4.32;0.85;;;29.50;99.90;;;;;;4973425;28;20019;-49
2022/09/02 01:39:10;;;;;;;3.58;0.93;;;29.50;99.90;;;;;;4973434;28;20038;-49
2022/09/02 01:41:36;;;;;;;;;;;29.50;99.90;;;;;;4973764;28;20031;-49
2022/09/02 01:44:03;;;;;;;3.97;0.70;;;29.50;99.90;;;;;;4973344;28;19912;-49
2022/09/02 01:46:28;;;;;;;2.97;0.80;;;29.50;99.90;;;;;;4973145;28;20053;-49
2022/09/02 01:48:54;;;;;;;3.83;0.93;;;29.50;99.90;;;;;;4973422;28;20641;-49
2022/09/02 01:51:20;;;;;;;3.70;0.75;;;29.50;99.90;;;;;;4973454;28;20033;-49
2022/09/02 01:53:47;;;;;;;7.05;0.77;;;29.50;99.90;;;;;;4973377;28;20058;-49
2022/09/02 01:56:13;;;;;;;3.38;1.17;;;29.50;99.90;;;;;;4973208;28;20038;-50
2022/09/02 01:58:39;;;;;;;3.85;1.02;;;29.50;99.90;;;;;;4973036;28;20058;-50
2022/09/02 02:01:06;;;;;;;9.05;0.90;;;29.50;99.90;;;;;;4972275;28;20141;-50
2022/09/02 02:03:34;;;;;;;1.92;0.93;;;29.40;99.90;;;;;;4972976;28;20110;-49
2022/09/02 02:06:01;;;;;;;2.55;0.80;;;29.50;99.90;;;;;;4971575;28;20042;-49
2022/09/02 02:08:27;;;;;;;2.60;0.85;;;29.50;99.90;;;;;;4972890;28;20074;-49
2022/09/02 02:10:53;;;;;;;3.13;0.70;;;29.50;99.90;;;;;;4973034;28;20027;-49
2022/09/02 02:13:19;;;;;;;4.85;0.80;;;29.50;99.90;;;;;;4972569;28;20502;-49
2022/09/02 02:15:45;;;;;;;7.57;0.90;;;29.50;99.90;;;;;;4972694;28;20035;-50
2022/09/02 02:18:11;;;;;;;3.78;1.00;;;29.50;99.90;;;;;;4972680;28;20086;-50
2022/09/02 02:20:37;;;;;;;6.45;0.90;;;29.50;99.90;;;;;;4972793;28;20058;-50
2022/09/02 02:23:04;;;;;;;1.27;0.50;;;29.50;99.90;;;;;;4972784;28;20029;-51
2022/09/02 02:25:31;;;;;;;1.58;0.60;;;29.50;99.90;;;;;;4972566;28;20031;-50
2022/09/02 02:27:56;;;;;;;3.93;0.93;;;29.50;99.90;;;;;;4972868;28;20034;-50
2022/09/02 02:30:23;;;;;;;1.40;0.80;;;29.50;99.90;;;;;;4972918;28;20031;-49
2022/09/02 02:32:48;;;;;;;3.00;0.85;;;29.50;99.90;;;;;;4972572;28;20027;-49
2022/09/02 02:35:17;;;;;;;4.32;1.20;;;29.50;99.90;;;;;;4972606;28;20113;-49
2022/09/02 02:37:44;;;;;;;2.05;0.82;;;29.50;99.90;;;;;;4972601;28;20371;-49
2022/09/02 02:40:10;;;;;;;;;;;29.50;99.90;;;;;;4973122;28;20030;-49
2022/09/02 02:42:38;;;;;;;3.42;0.82;;;29.50;99.90;;;;;;4972445;28;20278;-49
2022/09/02 02:45:08;;;;;;;2.90;0.80;;;29.50;99.90;;;;;;4972400;28;20031;-49
2022/09/02 02:47:38;;;;;;;1.98;0.95;;;29.50;99.90;;;;;;4972324;28;20066;-50
2022/09/02 02:50:07;;;;;;;4.68;0.93;;;29.40;99.90;;;;;;4972506;28;20031;-49
2022/09/02 02:52:33;;;;;;;6.45;1.63;;;29.40;99.90;;;;;;4972387;28;20031;-49
2022/09/02 02:54:59;;;;;;;3.35;1.00;;;29.40;99.90;;;;;;4972361;28;20386;-49
2022/09/02 02:57:24;;;;;;;5.15;0.70;;;29.40;99.90;;;;;;4972416;28;20029;-49
2022/09/02 02:59:50;;;;;;;7.22;0.70;;;29.40;99.90;;;;;;4972841;28;20121;-50
2022/09/02 03:02:16;;;;;;;3.65;0.90;;;29.40;99.90;;;;;;4972256;28;20031;-49
2022/09/02 03:04:42;;;;;;;4.68;0.68;;;29.40;99.90;;;;;;4972063;28;20035;-49
2022/09/02 03:07:08;;;;;;;5.72;0.73;;;29.30;99.90;;;;;;4972474;28;20030;-49
2022/09/02 03:09:34;;;;;;;3.83;0.75;;;29.30;99.90;;;;;;4972209;28;20022;-49
2022/09/02 03:12:01;;;;;;;7.03;0.73;;;29.30;99.90;;;;;;4972253;28;20391;-49
2022/09/02 03:14:26;;;;;;;5.40;0.77;;;29.30;99.90;;;;;;4972488;28;20529;-49
2022/09/02 03:16:52;;;;;;;4.55;0.65;;;29.30;99.90;;;;;;4972261;28;20066;-49
2022/09/02 03:19:18;;;;;;;5.25;0.93;;;29.30;99.90;;;;;;4972314;28;20035;-49
2022/09/02 03:21:44;;;;;;;1.17;0.60;;;29.30;99.90;;;;;;4972118;28;20479;-49
2022/09/02 03:24:11;;;;;;;0.70;0.60;;;29.30;99.90;;;;;;4972271;28;20033;-50
2022/09/02 03:26:39;;;;;;;2.47;0.90;;;29.30;99.90;;;;;;4975781;28;20436;-49
2022/09/02 03:29:05;;;;;;;0.88;0.55;;;29.30;99.90;;;;;;4975877;28;20027;-50
2022/09/02 03:31:30;;;;;;;2.00;0.52;;;29.40;99.90;;;;;;4975667;28;20510;-49
2022/09/02 03:33:56;;;;;;;1.58;0.60;;;29.40;99.90;;;;;;4976144;28;20594;-49
2022/09/02 03:36:37;;;;;;;3.10;0.85;;;29.40;99.90;;;;;;4975706;28;20489;-49
2022/09/02 03:39:05;;;;;;;2.10;0.80;;;29.40;99.90;;;;;;4975707;28;20107;-50
2022/09/02 03:41:30;;;;;;;2.40;0.80;;;29.40;99.90;;;;;;4975822;28;20023;-49
2022/09/02 03:43:57;;;;;;;4.88;0.68;;;29.40;99.90;;;;;;4975612;28;20053;-49
2022/09/02 03:46:23;;;;;;;2.35;0.70;;;29.40;99.90;;;;;;4975173;28;20100;-49
2022/09/02 03:48:50;;;;;;;1.67;0.73;;;29.40;99.90;;;;;;4975468;28;20027;-49
2022/09/02 03:51:19;;;;;;;4.53;0.90;;;29.40;99.90;;;;;;4975690;28;20358;-49
2022/09/02 03:53:45;;;;;;;2.08;0.80;;;29.40;99.90;;;;;;4975529;28;20249;-49
2022/09/02 03:56:14;;;;;;;3.55;0.77;;;29.50;99.90;;;;;;4975287;28;20088;-49
2022/09/02 03:58:42;;;;;;;1.85;0.80;;;29.40;99.90;;;;;;4975224;28;20030;-49
2022/09/02 04:01:14;;;;;;;2.08;1.02;;;29.40;99.90;;;;;;4975964;28;20047;-50
2022/09/02 04:03:39;;;;;;;3.25;1.23;;;29.40;99.90;;;;;;4975125;28;20023;-49
2022/09/02 04:06:10;;;;;;;2.03;0.70;;;29.40;99.90;;;;;;4975246;28;20525;-49
2022/09/02 04:08:36;;;;;;;3.58;0.93;;;29.40;99.90;;;;;;4975137;28;20030;-49
2022/09/02 04:11:07;;;;;;;3.20;0.70;;;29.40;99.90;;;;;;4975192;28;20030;-50
2022/09/02 04:13:33;;;;;;;6.10;1.00;;;29.30;99.90;;;;;;4975061;28;20249;-49
2022/09/02 04:16:04;;;;;;;8.80;1.20;;;29.40;99.90;;;;;;4975034;28;20487;-50
2022/09/02 04:18:30;;;;;;;5.50;1.42;;;29.30;99.90;;;;;;4975338;28;20023;-49
2022/09/02 04:20:59;;;;;;;9.82;1.60;;;29.30;99.90;;;;;;4974803;28;20398;-49
2022/09/02 04:23:25;;;;;;;6.63;2.30;;;29.20;99.90;;;;;;4974751;28;20106;-50
2022/09/02 04:25:50;;;;;;;5.00;1.42;;;29.10;99.90;;;;;;4974650;28;20582;-49
2022/09/02 04:28:16;;;;;;;5.25;1.10;;;29.00;99.90;;;;;;4974664;28;20027;-49
2022/09/02 04:30:42;;;;;;;3.78;1.30;;;29.00;99.90;;;;;;4974682;28;20033;-49
2022/09/02 04:33:09;;;;;;;3.30;1.42;;;28.90;99.90;;;;;;4974626;28;20467;-49
2022/09/02 04:35:40;;;;;;;6.05;1.38;;;28.90;99.90;;;;;;4974443;28;20034;-50
2022/09/02 04:38:05;;;;;;;3.67;1.23;;;28.80;99.90;;;;;;4974117;28;20011;-50
2022/09/02 04:40:31;;;;;;;4.22;1.33;;;28.80;99.90;;;;;;4974718;28;20031;-50
2022/09/02 04:42:57;;;;;;;6.38;1.63;;;28.70;99.90;;;;;;4974375;28;20027;-50
2022/09/02 04:45:23;;;;;;;3.67;1.40;;;28.70;99.90;;;;;;4974268;28;20122;-50
2022/09/02 04:47:48;;;;;;;5.13;1.20;;;28.70;99.90;;;;;;4974423;28;20031;-49
2022/09/02 04:50:14;;;;;;;7.20;1.30;;;28.70;99.90;;;;;;4973107;28;20085;-50
2022/09/02 04:52:40;;;;;;;10.90;1.58;;;28.80;99.90;;;;;;4973079;28;20030;-50
2022/09/02 04:55:06;;;;;;;6.53;1.13;;;28.80;99.90;;;;;;4973120;28;20030;-49
2022/09/02 04:57:32;;;;;;;2.67;0.88;;;28.90;99.90;;;;;;4974583;28;20018;-50
2022/09/02 05:00:00;;;;;;;4.90;1.10;;;28.90;99.90;;;;;;4974134;28;20508;-50
2022/09/02 05:02:25;;;;;;;3.33;1.35;;;29.00;99.90;;;;;;4974155;28;20031;-50
2022/09/02 05:04:51;;;;;;;5.22;1.38;;;29.10;99.90;;;;;;4973997;28;20479;-50
2022/09/02 05:07:17;;;;;;;5.47;1.27;;;29.10;99.90;;;;;;4974013;28;20037;-50
2022/09/02 05:09:43;;;;;;;5.38;2.05;;;29.20;99.90;;;;;;4974044;28;20027;-50
2022/09/02 05:12:10;;;;;;;1.88;1.10;;;29.20;99.90;;;;;;4973901;28;20038;-49
2022/09/02 05:14:36;;;;;;;6.00;1.20;;;29.30;99.90;;;;;;4973951;28;20037;-50
2022/09/02 05:17:03;;;;;;;3.25;1.10;;;29.40;99.90;;;;;;4973943;28;20043;-49
2022/09/02 05:19:29;;;;;;;4.82;1.23;;;29.40;99.90;;;;;;4973904;28;20027;-49
2022/09/02 05:21:57;;;;;;;4.88;1.02;;;29.40;99.90;;;;;;4973731;28;20386;-49
2022/09/02 05:24:24;;;;;;;2.42;1.20;;;29.40;99.90;;;;;;4973557;28;20510;-50
2022/09/02 05:26:50;;;;;;;6.57;1.80;;;29.50;99.90;;;;;;4973655;28;20447;-50
2022/09/02 05:29:19;;;;;;;2.30;1.10;;;29.50;99.90;;;;;;4973663;28;20022;-49
2022/09/02 05:31:46;;;;;;;4.28;1.17;;;29.50;99.90;;;;;;4973681;28;20102;-50
2022/09/02 05:34:13;;;;;;;5.40;1.10;;;29.50;99.90;;;;;;4973472;28;20035;-50
2022/09/02 05:36:39;;;;;;;3.90;1.23;;;29.60;99.90;;;;;;4973321;28;20062;-50
2022/09/02 05:39:05;;;;;;;6.47;1.50;;;29.60;99.90;;;;;;4973651;28;20082;-49
2022/09/02 05:41:31;;;;;;;3.90;1.67;;;29.70;99.90;;;;;;4973245;28;20073;-50
2022/09/02 05:43:59;;;;;;;9.23;1.45;;;29.70;99.90;;;;;;4973225;28;20418;-49
2022/09/02 05:46:26;;;;;;;6.47;1.60;;;29.70;99.90;;;;;;4973227;28;20066;-49
2022/09/02 05:49:05;;;;;;;3.07;1.20;;;29.60;99.90;;;;;;4972227;28;20114;-49
2022/09/02 05:51:39;;;;;;;5.85;1.67;;;29.60;99.90;;;;;;4973073;28;20328;-49
2022/09/02 05:54:06;;;;;;;9.48;2.00;;;29.60;99.90;;;;;;4973275;28;20073;-49
2022/09/02 05:56:31;;;;;;;6.65;1.67;;;29.60;99.90;;;;;;4973149;28;20042;-49
2022/09/02 05:59:00;;;;;;;3.33;1.50;;;29.60;99.90;;;;;;4972951;28;20424;-49
2022/09/02 06:01:26;;;;;;;3.58;1.10;;;29.60;99.90;;;;;;4972839;28;20039;-49
2022/09/02 06:03:51;;;;;;;5.15;1.27;;;29.60;99.90;;;;;;4972930;28;20471;-49
2022/09/02 06:06:20;;;;;;;4.25;1.80;;;29.60;99.90;;;;;;4972911;28;20031;-50
2022/09/02 06:08:46;;;;;;;7.43;1.48;;;29.60;99.90;;;;;;4972867;28;20031;-49
2022/09/02 06:11:12;;;;;;;5.95;1.35;;;29.60;99.90;;;;;;4972884;28;20031;-50
2022/09/02 06:13:41;;;;;;;3.08;1.30;;;29.60;99.90;;;;;;4973060;28;20504;-49
2022/09/02 06:16:09;;;;;;;4.50;1.67;;;29.60;99.90;;;;;;4972854;28;20121;-50
2022/09/02 06:18:35;;;;;;;8.63;1.77;;;29.70;99.90;;;;;;4973012;28;20025;-49
2022/09/02 06:21:03;;;;;;;8.00;1.65;;;29.70;99.90;;;;;;4971407;28;20062;-50
2022/09/02 06:23:28;;;;;;;3.72;1.50;;;29.70;99.90;;;;;;4972561;28;20027;-49
2022/09/02 06:25:54;;;;;;;5.00;1.40;;;29.70;99.90;;;;;;4972566;28;20045;-49
2022/09/02 06:28:20;;;;;;;4.20;1.63;;;29.70;99.90;;;;;;4972677;28;20494;-49
2022/09/02 06:30:47;;;;;;;7.95;1.40;;;29.70;99.90;;;;;;4972543;28;20506;-49
2022/09/02 06:33:13;;;;;;;2.83;1.00;;;29.70;99.90;;;;;;4972655;28;20023;-50
2022/09/02 06:35:42;;;;;;;6.00;1.25;;;29.70;99.90;;;;;;4972559;28;20054;-57
2022/09/02 06:38:09;;;;;;;7.47;1.48;;;29.70;99.90;;;;;;4972658;28;20050;-50
2022/09/02 06:40:36;;;;;;;4.30;1.10;;;29.70;99.90;;;;;;4972616;28;20563;-50
2022/09/02 06:43:02;;;;;;;2.65;1.23;;;29.70;99.90;;;;;;4971301;28;20039;-50
2022/09/02 06:45:30;;;;;;;9.43;1.60;;;29.70;99.90;;;;;;4972271;28;20043;-49
2022/09/02 06:47:56;;;;;;;7.53;1.52;;;29.70;99.90;;;;;;4971062;28;20376;-50
2022/09/02 06:50:21;;;;;;;5.28;1.45;;;29.70;99.90;;;;;;4972257;28;20062;-50
2022/09/02 06:52:47;;;;;;;6.40;1.75;;;29.70;99.90;;;;;;4972302;28;20027;-49
2022/09/02 06:55:15;;;;;;;13.95;1.33;;;29.70;99.90;;;;;;4971281;28;20394;-49
2022/09/02 06:57:42;;;;;;;5.65;2.00;;;29.70;99.90;;;;;;4972732;28;20061;-49
2022/09/02 07:00:10;;;;;;;4.10;1.92;;;29.70;99.90;;;;;;4973948;28;20522;-49
2022/09/02 07:02:36;;;;;;;6.22;1.48;;;29.70;99.90;;;;;;4976300;28;20042;-50
2022/09/02 07:05:08;;;;;;;5.83;1.90;;;29.70;99.90;;;;;;4976061;28;20031;-50
2022/09/02 07:07:36;;;;;;;6.05;1.10;;;29.70;99.90;;;;;;4974890;28;20042;-50
2022/09/02 07:10:05;;;;;;;6.32;1.48;;;29.70;99.90;;;;;;4976060;28;20027;-49
2022/09/02 07:12:32;;;;;;;6.57;1.63;;;29.70;99.90;;;;;;4976048;28;20035;-49
2022/09/02 07:14:58;;;;;;;7.30;2.53;;;29.70;99.90;;;;;;4974758;28;20022;-50
2022/09/02 07:17:24;;;;;;;6.45;1.33;;;29.70;99.90;;;;;;4974636;28;20509;-49
2022/09/02 07:19:50;;;;;;;5.30;1.13;;;29.70;99.90;;;;;;4975894;28;20030;-50
2022/09/02 07:22:16;;;;;;;11.48;2.53;;;29.70;99.90;;;;;;4975844;28;20434;-50
2022/09/02 07:24:42;;;;;;;6.18;1.00;;;29.80;99.90;;;;;;4975690;28;20418;-50
2022/09/02 07:27:08;;;;;;;4.63;1.52;;;29.80;99.90;;;;;;4975947;28;20090;-50
2022/09/02 07:29:34;;;;;;;1.23;1.00;;;29.80;99.90;;;;;;4975700;28;20015;-50
2022/09/02 07:32:01;;;;;;;6.20;1.60;;;29.80;99.90;;;;;;4975645;28;20478;-50
2022/09/02 07:34:28;;;;;;;2.28;1.20;;;29.80;99.90;;;;;;4975862;28;20364;-49
2022/09/02 07:36:54;;;;;;;3.92;1.10;;;29.80;99.90;;;;;;4975506;28;20498;-49
2022/09/02 07:39:20;;;;;;;1.52;1.10;;;29.90;99.90;;;;;;4975372;28;20038;-49
2022/09/02 07:41:49;;;;;;;4.78;1.20;;;29.80;99.90;;;;;;4975461;28;20022;-49
2022/09/02 07:44:15;;;;;;;2.88;1.08;;;29.80;99.90;;;;;;4975452;28;20131;-50
2022/09/02 07:46:41;;;;;;;6.40;1.85;;;29.90;99.90;;;;;;4975447;28;20043;-49
2022/09/02 07:49:09;;;;;;;6.40;1.40;;;29.90;99.90;;;;;;4975357;28;20119;-49
2022/09/02 07:51:39;;;;;;;9.73;1.98;;;29.80;99.90;;;;;;4975330;28;20022;-49
2022/09/02 07:54:06;;;;;;;8.55;2.03;;;29.90;99.90;;;;;;4975259;28;20031;-49
2022/09/02 07:56:32;;;;;;;5.57;1.75;;;29.80;99.90;;;;;;4974132;28;20419;-50
2022/09/02 07:58:58;;;;;;;4.68;1.60;;;29.70;99.90;;;;;;4975125;28;20034;-49
2022/09/02 08:01:24;;;;;;;7.03;2.55;;;29.70;99.90;;;;;;4974850;28;20058;-49
2022/09/02 08:03:51;;;;;;;3.80;1.60;;;29.70;99.90;;;;;;4975233;28;20026;-50
2022/09/02 08:06:17;;;;;;;4.88;2.05;;;29.60;99.90;;;;;;4974974;28;20511;-50
2022/09/02 08:08:43;;;;;;;5.47;1.52;;;29.60;99.90;;;;;;4975035;28;20471;-50
2022/09/02 08:11:09;;;;;;;2.60;1.50;;;29.70;99.90;;;;;;4973806;28;20037;-50
2022/09/02 08:13:38;;;;;;;10.85;2.40;;;29.60;99.90;;;;;;4974658;28;20057;-49
2022/09/02 08:16:04;;;;;;;6.22;1.50;;;29.70;99.90;;;;;;4974794;28;20348;-49
2022/09/02 08:18:30;;;;;;;9.82;2.72;;;29.70;99.90;;;;;;4974833;28;20019;-49
2022/09/02 08:20:56;;;;;;;7.30;2.20;;;29.70;99.90;;;;;;4974974;28;20027;-49
2022/09/02 08:23:22;;;;;;;9.98;2.45;;;29.70;99.90;;;;;;4974584;28;20027;-50
2022/09/02 08:25:48;;;;;;;12.68;1.95;;;29.70;99.90;;;;;;4974588;28;20049;-49
2022/09/02 08:28:14;;;;;;;8.30;1.60;;;29.70;99.90;;;;;;4974926;28;20026;-50
2022/09/02 08:30:40;;;;;;;4.30;1.80;;;29.70;99.90;;;;;;4974705;28;20447;-50
2022/09/02 08:33:06;;;;;;;7.75;2.55;;;29.70;99.90;;;;;;4974595;28;20995;-49
2022/09/02 08:35:31;;;;;;;9.15;1.60;;;29.70;99.90;;;;;;4974646;28;20487;-50
2022/09/02 08:38:01;;;;;;;14.93;1.80;;;29.70;99.90;;;;;;4974383;28;20034;-49
2022/09/02 08:40:35;;;;;;;8.75;1.50;;;29.80;99.90;;;;;;4974371;28;20111;-49
2022/09/02 08:43:03;;;;;;;9.40;1.60;;;29.80;99.90;;;;;;4974291;28;20038;-49
2022/09/02 08:45:36;;;;;;;10.77;2.60;;;29.80;99.90;;;;;;4974343;28;20450;-50
2022/09/02 08:48:34;;;;;;;7.28;1.60;;;29.90;99.90;;;;;;4974177;28;20042;-50
2022/09/02 08:51:06;;;;;;;9.07;1.58;;;29.90;99.90;;;;;;4951884;28;20125;-49
2022/09/02 08:53:45;;;;;;;8.85;1.60;;;29.90;99.90;;;;;;4972934;28;20101;-49
2022/09/02 08:56:16;;;;;;;16.33;3.13;;;29.90;99.90;;;;;;4974082;28;20026;-49
2022/09/02 08:58:49;;;;;;;9.00;2.58;;;29.90;99.90;;;;;;4974100;28;20030;-49
2022/09/02 09:01:44;;;;;;;10.73;1.77;;;29.90;99.90;;;;;;4973997;28;20133;-49
2022/09/02 09:04:19;;;;;;;9.75;2.75;;;30.00;99.90;;;;;;4974013;28;20095;-49
2022/09/02 09:07:06;;;;;;;5.97;2.00;;;30.00;99.90;;;;;;4973977;28;20034;-49
2022/09/02 09:09:59;;;;;;;7.40;2.05;;;30.00;99.90;;;;;;4973935;28;20018;-50
2022/09/02 09:12:48;;;;;;;14.40;1.70;;;30.00;99.90;;;;;;4973811;28;20027;-49
2022/09/02 09:15:37;;;;;;;5.72;1.52;;;30.00;99.90;;;;;;4973943;28;20035;-49
2022/09/02 09:18:07;;;;;;;15.52;2.30;;;30.00;99.90;;;;;;4973634;28;20058;-50
2022/09/02 09:20:37;;;;;;;9.73;1.48;;;30.00;99.90;;;;;;4973772;28;20035;-50
2022/09/02 09:23:32;;;;;;;12.48;2.15;;;30.10;99.90;;;;;;4973303;28;20023;-49
2022/09/02 09:26:10;;;;;;;4.82;1.88;;;30.00;99.90;;;;;;4973551;28;20043;-50
2022/09/02 09:28:42;;;;;;;14.48;1.67;;;30.00;99.90;;;;;;4973550;28;20034;-50
2022/09/02 09:31:18;;;;;;;3.70;1.50;;;30.10;99.90;;;;;;4973394;28;20061;-50
2022/09/02 09:34:04;;;;;;;19.58;2.15;;;30.10;99.90;;;;;;4973639;28;20046;-49
2022/09/02 09:37:04;;;;;;;11.20;2.30;;;30.10;99.90;;;;;;4973360;28;20027;-49
2022/09/02 09:39:31;;;;;;;9.75;2.22;;;30.10;99.90;;;;;;4970993;28;20399;-49
2022/09/02 09:42:02;;;;;;;12.07;2.38;;;30.00;99.90;;;;;;4973252;28;20510;-50
2022/09/02 09:44:46;;;;;;;13.43;2.05;;;29.90;99.90;;;;;;4973203;28;20034;-49
2022/09/02 09:47:19;;;;;;;11.65;2.85;;;29.90;99.90;;;;;;4973181;28;20189;-49
2022/09/02 09:49:47;;;;;;;6.43;1.92;;;29.90;99.90;;;;;;4973243;28;20030;-50
2022/09/02 09:52:30;;;;;;;7.28;1.70;;;29.90;99.90;;;;;;4972942;28;20027;-49
2022/09/02 09:55:18;;;;;;;10.48;1.85;;;29.80;99.90;;;;;;4972867;28;20044;-50
2022/09/02 09:57:47;;;;;;;7.07;1.60;;;29.90;99.90;;;;;;4972913;28;20031;-49
2022/09/02 10:00:31;;;;;;;8.10;1.88;;;29.90;99.90;;;;;;4972617;28;20043;-49
2022/09/02 10:03:00;;;;;;;4.60;1.80;;;29.80;99.90;;;;;;4972884;28;20034;-50
2022/09/02 10:05:31;;;;;;;5.63;3.28;;;29.90;99.90;;;;;;4972799;28;20039;-49
2022/09/02 10:08:18;;;;;;;9.70;2.67;;;29.90;99.90;;;;;;4972881;28;20106;-49
2022/09/02 10:11:07;;;;;;;7.15;2.30;;;29.90;99.90;;;;;;4971280;28;20027;-49
2022/09/02 10:13:35;;;;;;;7.75;2.10;;;29.90;99.90;;;;;;4972575;28;20403;-49
2022/09/02 10:16:19;;;;;;;8.52;2.30;;;30.00;99.90;;;;;;4972696;28;20050;-50
2022/09/02 10:19:13;;;;;;;8.98;2.13;;;30.00;99.90;;;;;;4972545;28;20102;-49
2022/09/02 10:21:48;;;;;;;11.30;2.33;;;30.10;99.90;;;;;;4956699;28;20037;-49
2022/09/02 10:24:22;;;;;;;4.82;2.15;;;30.10;99.90;;;;;;4972449;28;20026;-49
2022/09/02 10:26:51;;;;;;;11.07;2.00;;;30.20;99.90;;;;;;4972558;28;20038;-49
2022/09/02 10:29:37;;;;;;;6.57;2.17;;;30.10;99.90;;;;;;4972725;28;20023;-49
2022/09/02 10:32:11;;;;;;;8.50;2.28;;;30.20;99.90;;;;;;4972462;28;20111;-51
2022/09/02 10:34:52;;;;;;;9.10;1.83;;;30.20;99.90;;;;;;4971974;28;20030;-49
2022/09/02 10:37:22;;;;;;;4.90;1.85;;;30.20;99.90;;;;;;4972672;28;20046;-49
2022/09/02 10:40:14;;;;;;;3.20;1.77;;;30.30;99.90;;;;;;4972559;28;20058;-49
2022/09/02 10:43:00;;;;;;;7.75;1.75;;;30.30;99.90;;;;;;4972253;28;20030;-53
2022/09/02 10:45:33;;;;;;;5.57;1.52;;;30.30;99.90;;;;;;4972378;28;20047;-49
2022/09/02 10:48:14;;;;;;;3.83;1.52;;;30.30;99.90;;;;;;4972640;28;20104;-50
2022/09/02 10:51:03;;;;;;;11.60;2.33;;;30.40;99.90;;;;;;4972369;28;20058;-49
2022/09/02 10:53:50;;;;;;;5.53;1.50;;;30.40;99.90;;;;;;4972146;28;20027;-49
2022/09/02 10:56:25;;;;;;;4.80;1.95;;;30.40;99.90;;;;;;4971998;28;20082;-49
2022/09/02 10:59:15;;;;;;;7.50;2.20;;;30.50;99.90;;;;;;4972185;28;20019;-49
2022/09/02 11:02:04;;;;;;;3.55;2.67;;;30.50;99.90;;;;;;4972011;28;20039;-49
2022/09/02 11:04:58;;;;;;;10.40;1.73;;;30.50;99.90;;;;;;4971576;28;20038;-49
2022/09/02 11:07:35;;;;;;;12.05;2.92;;;30.60;99.90;;;;;;4972121;28;20066;-49
2022/09/02 11:10:18;;;;;;;;;;;30.60;99.90;;;;;;4972303;28;20042;-49
2022/09/02 11:12:53;;;;;;;4.30;1.88;;;30.60;99.90;;;;;;4972050;28;20099;-49
2022/09/02 11:15:56;;;;;;;7.50;1.95;;;30.70;99.90;;;;;;4972042;28;20026;-49
2022/09/02 11:18:31;;;;;;;6.18;1.48;;;30.70;99.90;;;;;;4972363;28;20435;-49
2022/09/02 11:21:17;;;;;;;9.00;3.03;;;30.80;99.90;;;;;;4971867;28;20034;-49
2022/09/02 11:24:12;;;;;;;11.48;7.97;;;30.80;99.90;;;;;;4971928;28;20023;-48
2022/09/02 11:27:00;;;;;;;7.00;3.80;;;30.80;99.90;;;;;;4970771;28;20042;-49
2022/09/02 11:29:47;;;;;;;12.43;2.33;;;30.80;99.90;;;;;;4971609;28;20089;-48
2022/09/02 11:32:22;;;;;;;8.57;2.83;;;30.80;99.90;;;;;;4971726;28;20019;-49
2022/09/02 11:34:53;;;;;;;12.48;3.30;;;30.80;99.90;;;;;;4971691;28;20475;-49
2022/09/02 11:37:34;;;;;;;7.18;3.40;;;30.80;99.90;;;;;;4971724;28;20058;-49
2022/09/02 11:40:13;;;;;;;7.70;2.63;;;30.90;99.90;;;;;;4971843;28;20034;-48
2022/09/02 11:42:57;;;;;;;9.95;2.13;;;30.90;99.90;;;;;;4971676;28;20058;-48
2022/09/02 11:45:38;;;;;;;5.90;2.08;;;30.90;99.90;;;;;;4972398;28;20027;-49
2022/09/02 11:48:22;;;;;;;8.20;2.58;;;30.90;99.90;;;;;;4974954;28;20150;-56
2022/09/02 11:50:56;;;;;;;3.53;1.73;;;30.90;99.90;;;;;;4975150;28;20019;-48
2022/09/02 11:53:28;;;;;;;6.75;1.88;;;30.90;99.90;;;;;;4975440;28;20031;-49
2022/09/02 11:56:03;;;;;;;11.63;1.90;;;30.90;99.90;;;;;;4975396;28;20387;-49
2022/09/02 11:58:36;;;;;;;5.90;2.13;;;30.90;99.90;;;;;;4975048;28;20400;-49
2022/09/02 12:01:14;;;;;;;5.20;1.95;;;31.00;99.90;;;;;;4974793;28;20050;-49
2022/09/02 12:03:49;;;;;;;6.07;3.65;;;31.00;99.90;;;;;;4974867;28;20027;-48
2022/09/02 12:06:18;;;;;;;9.90;4.15;;;31.00;99.90;;;;;;4974810;28;20501;-48
2022/09/02 12:08:43;;;;;;;4.63;1.92;;;31.10;99.90;;;;;;4975012;28;20046;-49
2022/09/02 12:11:40;;;;;;;6.97;1.83;;;31.10;99.90;;;;;;4974783;28;20503;-49
2022/09/02 12:14:26;;;;;;;3.40;1.63;;;31.10;99.90;;;;;;4974612;28;20057;-48
2022/09/02 12:17:06;;;;;;;7.20;2.80;;;31.20;99.90;;;;;;4954097;28;20114;-48
2022/09/02 12:19:40;;;;;;;19.25;3.58;;;31.20;99.90;;;;;;4974694;28;20019;-48
2022/09/02 12:22:15;;;;;;;6.22;2.25;;;31.30;99.90;;;;;;4974771;28;20027;-49
2022/09/02 12:24:53;;;;;;;8.98;2.50;;;31.40;99.90;;;;;;4974752;28;20105;-49
2022/09/02 12:28:09;;;;;;;30.77;4.65;;;31.50;99.90;;;;;;4974907;28;20507;-49
2022/09/02 12:31:07;;;;;;;11.63;2.50;;;31.50;99.90;;;;;;4957371;28;20030;-48
2022/09/02 12:33:42;;;;;;;7.97;3.13;;;31.50;99.90;;;;;;4974541;28;20237;-48
2022/09/02 12:36:31;;;;;;;9.20;3.58;;;31.60;99.90;;;;;;4974429;28;20467;-49
2022/09/02 12:39:26;;;;;;;9.77;2.00;;;31.50;99.90;;;;;;4963738;28;20050;-48
2022/09/02 12:41:54;;;;;;;6.47;2.42;;;31.50;99.90;;;;;;4974255;28;20031;-49
2022/09/02 12:44:27;;;;;;;8.73;2.80;;;31.60;99.90;;;;;;4974368;28;20388;-50
2022/09/02 12:46:57;;;;;;;8.70;2.65;;;31.50;99.90;;;;;;4974051;28;20030;-49
2022/09/02 12:49:53;;;;;;;9.35;3.35;;;31.60;99.90;;;;;;4974489;28;20030;-49
2022/09/02 12:52:34;;;;;;;6.68;3.40;;;31.60;99.90;;;;;;4974331;28;20510;-49
2022/09/02 12:55:21;;;;;;;13.75;4.38;;;31.50;99.90;;;;;;4974255;28;20038;-49
2022/09/02 12:58:05;;;;;;;5.25;2.60;;;31.40;99.90;;;;;;4973660;28;20386;-49
2022/09/02 13:00:53;;;;;;;13.23;7.40;;;31.30;99.90;;;;;;4973922;28;20113;-48
2022/09/02 13:03:43;;;;;;;6.75;2.45;;;31.20;99.90;;;;;;4970853;28;20036;-49
2022/09/02 13:06:09;;;;;;;14.57;2.20;;;31.00;99.90;;;;;;4962326;28;20067;-48
2022/09/02 13:09:05;;;;;;;5.15;1.73;;;30.90;99.90;;;;;;4971591;28;20030;-49